• Join FlightAware (Why Join?)
  • Login
  • US Flag 
06:58PM EDT


 

Airport Tracker/Info


-or-


 

Live Flight TrackerFlight Track Log ✈ N508QS ✈ 18-May-2013 ✈ KBED - KHPN

Flight Track Log - Related Links

Times and Time Zones

All times are in EDT time to prevent confusion due to time zone crossing. See the N508QS flight status page for this flight to view local times or setup timezone preferences in your user account.

Time Position Orientation Groundspeed Altitude Reporting Facility
EDT Latitude Longitude Course Direction KTS MPH feet Rate Location/Type
05:07PM 42.4667 -71.2667 180° South 149 171 1,200  Level KA90
05:08PM 42.4333 -71.2667 180° South 194 223 2,700 2,520 Climbing KA90
05:09PM 42.3661 -71.3639 227° Southwest 234 269 7,400 3,540 Climbing Boston Center
05:10PM 42.3356 -71.4458 243° Southwest 266 306 11,200 2,940 Climbing Boston Center
05:11PM 42.3389 -71.5833 272° West 317 365 13,300 1,980 Climbing Boston Center
05:12PM 42.3417 -71.7069 272° West 357 411 15,200 1,320 Climbing Boston Center
05:13PM 42.3258 -71.8503 262° West 368 423 16,000 360 Climbing Boston Center
05:14PM 42.2703 -71.9772 239° Southwest 378 435 16,000  Level Boston Center
05:15PM 42.2144 -72.0981 238° Southwest 390 449 16,000  Level Boston Center
05:16PM 42.1583 -72.2217 239° Southwest 390 449 16,000  Level Boston Center
05:17PM 42.1022 -72.3422 238° Southwest 390 449 16,000  Level Boston Center
05:18PM 42.0522 -72.4542 239° Southwest 390 449 16,000  Level Boston Center
05:19PM 41.9878 -72.5881 237° Southwest 390 449 16,000  Level Boston Center
05:20PM 41.9311 -72.7136 239° Southwest 390 449 16,000 -300 Level Boston Center
05:21PM 41.8786 -72.8361 240° Southwest 390 449 15,400 -1,020 Descending Boston Center
05:22PM 41.8303 -72.9528 241° Southwest 378 435 14,000 -720 Descending Boston Center
05:23PM 41.7858 -73.0636 242° Southwest 356 410 14,000  Level Boston Center
05:24PM 41.7436 -73.1661 241° Southwest 350 403 14,000  Level Boston Center
05:25PM 41.6992 -73.2714 241° Southwest 316 364 14,000 -300 Level Boston Center
05:26PM 41.6631 -73.3486 238° Southwest 268 308 13,500 -960 Descending Boston Center
05:28PM 41.6292 -73.4289 241° Southwest 251 289 12,000 -1,440 Descending Boston Center
05:29PM 41.5908 -73.5225 241° Southwest 245 282 10,400 -1,440 Descending Boston Center
05:30PM 41.5589 -73.5942 239° Southwest 245 282 9,200 -1,320 Descending Boston Center
05:31PM 41.5244 -73.6767 241° Southwest 245 282 7,800 -1,140 Descending Boston Center
05:32PM 41.4947 -73.7428 239° Southwest 245 282 7,000 -420 Descending Boston Center
05:33PM 41.4625 -73.8197 241° Southwest 229 264 7,000  Level Boston Center
05:34PM 41.4367 -73.8800 240° Southwest 224 258 7,000  Level Boston Center
05:35PM 41.4547 -73.9414 291° West 171 197 7,000  Level Boston Center
05:36PM 41.5000 -73.9333 North 217 250 7,100 -480 Climbing New York TRACON
05:37PM 41.4500 -73.8667 135° Southeast 272 313 6,100 -960 Descending New York TRACON
05:38PM 41.3833 -73.8833 191° South 262 302 5,100 -900 Descending New York TRACON
05:39PM 41.3167 -73.8833 180° South 217 250 4,300 -840 Descending New York TRACON
05:40PM 41.2833 -73.8667 159° South 178 205 3,600 -660 Descending New York TRACON
05:41PM 41.2333 -73.8333 153° Southeast 173 199 3,100 -300 Descending New York TRACON
05:42PM 41.2000 -73.8000 143° Southeast 161 185 3,100 -360 Level New York TRACON
05:43PM 41.1667 -73.7833 159° South 148 170 2,400 -720 Descending New York TRACON
05:44PM 41.1167 -73.7500 153° Southeast 142 163 1,600 -780 Descending New York TRACON
05:45PM 41.1000 -73.7333 143° Southeast 125 144 900 -780 Descending New York TRACON